Burien, Washington
Current Conditions -  °F | °C
As of 11:53 AM on Monday 26 Jan 2015 (Local Time) from KSEA Reporting Station
Few Clouds Few Clouds  
Wind Chill: 56°   Ceiling: Unl
Heat Index: 56°   Visibility: 10mi
Dew Point: 45°   Wind: 6mph
Humidity: 67%   Direction: 190°S
Pressure: 29.96"   Gusts: NA
Location:  47.47°N, 122.34°W
Report Text: KSEA 261953Z 19005KT 10SM FEW250 13/07 A2996 RMK AO2 SLP154 T01330072
Loading
Personal Weather Stations






























Interactive Weather Map New forecast layout! Learn more

10-Day Weather Forecast

Advertisements
Track Severe Weather on mobile